createdAt,value
2023-05-06T00:00:56.322Z,391.00
2023-05-06T00:01:56.327Z,389.00
2023-05-06T00:02:56.384Z,388.00
2023-05-06T00:03:56.591Z,387.00
2023-05-06T00:04:56.600Z,387.00
2023-05-06T00:05:56.389Z,387.00
2023-05-06T00:06:56.396Z,388.00
2023-05-06T00:07:56.426Z,386.00
2023-05-06T00:08:56.430Z,389.00
2023-05-06T00:09:56.424Z,388.00
2023-05-06T00:10:56.430Z,391.00
2023-05-06T00:11:56.436Z,392.00
2023-05-06T00:12:56.540Z,393.00
2023-05-06T00:13:56.462Z,392.00
2023-05-06T00:14:56.512Z,390.00
2023-05-06T00:15:56.653Z,392.00
2023-05-06T00:16:56.556Z,392.00
2023-05-06T00:17:56.653Z,389.00
2023-05-06T00:18:56.652Z,389.00
2023-05-06T00:19:56.748Z,391.00
2023-05-06T00:20:56.673Z,393.00
2023-05-06T00:21:56.668Z,395.00
2023-05-06T00:22:56.711Z,394.00
2023-05-06T00:23:56.705Z,396.00
2023-05-06T00:24:56.755Z,395.00
2023-05-06T00:25:56.738Z,393.00
2023-05-06T00:26:56.743Z,393.00
2023-05-06T00:27:56.717Z,393.00
2023-05-06T00:28:56.761Z,392.00
2023-05-06T00:29:56.765Z,392.00
2023-05-06T00:30:56.761Z,396.00
2023-05-06T00:31:56.802Z,394.00
2023-05-06T00:32:56.848Z,392.00
2023-05-06T00:33:56.862Z,389.00
2023-05-06T00:34:56.853Z,390.00
2023-05-06T00:35:56.908Z,389.00
2023-05-06T00:36:56.887Z,385.00
2023-05-06T00:37:56.891Z,386.00
2023-05-06T00:38:56.926Z,387.00
2023-05-06T00:39:56.922Z,388.00
2023-05-06T00:40:57.023Z,389.00
2023-05-06T00:41:56.994Z,389.00
2023-05-06T00:42:56.995Z,389.00
2023-05-06T00:43:57.023Z,391.00
2023-05-06T00:44:57.086Z,391.00
2023-05-06T00:45:57.126Z,393.00
2023-05-06T00:46:57.104Z,391.00
2023-05-06T00:47:57.113Z,393.00
2023-05-06T00:48:57.080Z,393.00
2023-05-06T00:49:57.128Z,391.00
2023-05-06T00:50:57.170Z,389.00
2023-05-06T00:51:57.180Z,390.00
2023-05-06T00:52:58.144Z,388.00
2023-05-06T00:53:57.201Z,390.00
2023-05-06T00:54:57.242Z,388.00
2023-05-06T00:55:57.242Z,386.00
2023-05-06T00:56:57.258Z,388.00
2023-05-06T00:57:57.261Z,388.00
2023-05-06T00:58:57.277Z,389.00
2023-05-06T00:59:57.345Z,393.00
2023-05-06T01:00:57.382Z,393.00
2023-05-06T01:01:57.369Z,394.00
2023-05-06T01:02:57.508Z,394.00
2023-05-06T01:03:57.848Z,393.00
2023-05-06T01:04:57.450Z,390.00
2023-05-06T01:05:57.473Z,386.00
2023-05-06T01:06:57.439Z,388.00
2023-05-06T01:07:57.487Z,388.00
2023-05-06T01:08:57.528Z,386.00
2023-05-06T01:09:57.520Z,386.00
2023-05-06T01:10:57.626Z,385.00
2023-05-06T01:11:57.601Z,386.00
2023-05-06T01:12:57.685Z,386.00
2023-05-06T01:13:57.634Z,385.00
2023-05-06T01:14:57.630Z,384.00
2023-05-06T01:15:57.669Z,387.00
2023-05-06T01:16:57.702Z,389.00
2023-05-06T01:17:57.675Z,388.00
2023-05-06T01:18:57.724Z,388.00
2023-05-06T01:19:57.729Z,387.00
2023-05-06T01:20:57.786Z,386.00
2023-05-06T01:21:57.823Z,383.00
2023-05-06T01:22:57.847Z,382.00
2023-05-06T01:23:58.418Z,384.00
2023-05-06T01:24:57.874Z,386.00
2023-05-06T01:25:57.874Z,389.00
2023-05-06T01:26:57.902Z,388.00
2023-05-06T01:27:57.875Z,387.00
2023-05-06T01:28:57.864Z,388.00
2023-05-06T01:29:57.933Z,389.00
2023-05-06T01:30:58.018Z,388.00
2023-05-06T01:31:57.932Z,388.00
2023-05-06T01:32:57.992Z,388.00
2023-05-06T01:33:57.936Z,390.00
2023-05-06T01:34:57.985Z,391.00
2023-05-06T01:35:57.995Z,391.00
2023-05-06T01:36:58.054Z,390.00
2023-05-06T01:37:58.036Z,389.00
2023-05-06T01:38:58.025Z,391.00
2023-05-06T01:39:58.054Z,392.00
2023-05-06T01:40:58.090Z,392.00
2023-05-06T01:41:58.129Z,390.00
2023-05-06T01:42:58.132Z,389.00
2023-05-06T01:43:58.149Z,389.00
2023-05-06T01:44:58.178Z,389.00
2023-05-06T01:45:58.232Z,387.00
2023-05-06T01:46:58.216Z,389.00
2023-05-06T01:47:58.278Z,385.00
2023-05-06T01:48:58.247Z,386.00
2023-05-06T01:49:58.263Z,383.00
2023-05-06T01:50:58.293Z,383.00
2023-05-06T01:51:58.329Z,386.00
2023-05-06T01:52:58.365Z,388.00
2023-05-06T01:53:58.425Z,389.00
2023-05-06T01:54:58.490Z,389.00
2023-05-06T01:55:58.483Z,388.00
2023-05-06T01:56:58.534Z,387.00
2023-05-06T01:57:58.622Z,388.00
2023-05-06T01:58:59.505Z,391.00
2023-05-06T01:59:58.625Z,392.00
2023-05-06T02:00:58.672Z,390.00
2023-05-06T02:01:58.698Z,388.00
2023-05-06T02:02:58.714Z,389.00
2023-05-06T02:03:58.871Z,387.00
2023-05-06T02:04:58.734Z,386.00
2023-05-06T02:05:58.732Z,386.00
2023-05-06T02:06:58.772Z,386.00
2023-05-06T02:07:58.820Z,386.00
2023-05-06T02:08:58.838Z,386.00
2023-05-06T02:09:58.836Z,388.00
2023-05-06T02:10:58.934Z,388.00
2023-05-06T02:11:58.945Z,389.00
2023-05-06T02:12:58.949Z,390.00
2023-05-06T02:13:58.958Z,389.00
2023-05-06T02:14:58.974Z,389.00
2023-05-06T02:15:59.055Z,387.00
2023-05-06T02:16:58.975Z,386.00
2023-05-06T02:17:59.085Z,386.00
2023-05-06T02:18:59.018Z,384.00
2023-05-06T02:19:59.067Z,383.00
2023-05-06T02:20:59.143Z,386.00
2023-05-06T02:21:59.225Z,386.00
2023-05-06T02:22:59.238Z,384.00
2023-05-06T02:23:59.272Z,384.00
2023-05-06T02:24:59.276Z,384.00
2023-05-06T02:25:59.307Z,383.00
2023-05-06T02:26:59.304Z,384.00
2023-05-06T02:27:59.414Z,382.00
2023-05-06T02:28:59.694Z,385.00
2023-05-06T02:29:59.383Z,386.00
2023-05-06T02:30:59.449Z,386.00
2023-05-06T02:31:59.441Z,389.00
2023-05-06T02:32:59.566Z,390.00
2023-05-06T02:33:59.490Z,389.00
2023-05-06T02:34:59.521Z,387.00
2023-05-06T02:35:59.521Z,385.00
2023-05-06T02:36:59.628Z,384.00
2023-05-06T02:37:59.649Z,385.00
2023-05-06T02:38:59.620Z,384.00
2023-05-06T02:39:59.653Z,384.00
2023-05-06T02:40:59.693Z,384.00
2023-05-06T02:41:59.694Z,383.00
2023-05-06T02:42:59.756Z,384.00
2023-05-06T02:43:59.751Z,385.00
2023-05-06T02:44:59.792Z,386.00
2023-05-06T02:45:59.854Z,387.00
2023-05-06T02:46:59.832Z,388.00
2023-05-06T02:47:59.908Z,392.00
2023-05-06T02:48:59.920Z,394.00
2023-05-06T02:49:59.885Z,394.00
2023-05-06T02:50:59.940Z,394.00
2023-05-06T02:51:59.962Z,395.00
2023-05-06T02:52:59.988Z,394.00
2023-05-06T02:54:00.058Z,393.00
2023-05-06T02:55:00.059Z,392.00
2023-05-06T02:56:00.148Z,391.00
2023-05-06T02:57:00.141Z,392.00
2023-05-06T02:58:00.190Z,391.00
2023-05-06T02:59:00.223Z,391.00
2023-05-06T03:00:00.355Z,392.00
2023-05-06T03:01:00.304Z,393.00
2023-05-06T03:02:00.350Z,394.00
2023-05-06T03:03:00.380Z,394.00
2023-05-06T03:04:00.452Z,390.00
2023-05-06T03:05:00.471Z,387.00
2023-05-06T03:06:00.519Z,386.00
2023-05-06T03:07:00.557Z,384.00
2023-05-06T03:08:00.599Z,383.00
2023-05-06T03:09:00.664Z,383.00
2023-05-06T03:10:00.672Z,386.00
2023-05-06T03:11:00.727Z,387.00
2023-05-06T03:12:00.795Z,389.00
2023-05-06T03:13:00.821Z,389.00
2023-05-06T03:14:00.839Z,390.00
2023-05-06T03:15:00.862Z,388.00
2023-05-06T03:16:00.917Z,388.00
2023-05-06T03:17:00.890Z,389.00
2023-05-06T03:18:00.997Z,391.00
2023-05-06T03:19:00.939Z,390.00
2023-05-06T03:20:00.944Z,389.00
2023-05-06T03:21:01.021Z,387.00
2023-05-06T03:22:01.004Z,389.00
2023-05-06T03:23:01.047Z,387.00
2023-05-06T03:24:01.054Z,388.00
2023-05-06T03:25:01.115Z,386.00
2023-05-06T03:26:01.081Z,387.00
2023-05-06T03:27:01.107Z,389.00
2023-05-06T03:28:01.150Z,387.00
2023-05-06T03:29:01.181Z,383.00
2023-05-06T03:30:01.229Z,385.00
2023-05-06T03:31:01.202Z,387.00
2023-05-06T03:32:01.315Z,386.00
2023-05-06T03:33:01.322Z,387.00
2023-05-06T03:34:01.291Z,387.00
2023-05-06T03:35:01.370Z,387.00
2023-05-06T03:36:02.171Z,389.00
2023-05-06T03:37:01.370Z,391.00
2023-05-06T03:38:01.434Z,390.00
2023-05-06T03:39:01.449Z,390.00
2023-05-06T03:40:01.482Z,391.00
2023-05-06T03:41:01.468Z,393.00
2023-05-06T03:42:02.231Z,394.00
2023-05-06T03:43:01.518Z,395.00
2023-05-06T03:44:01.572Z,391.00
2023-05-06T03:45:01.599Z,392.00
2023-05-06T03:46:01.617Z,390.00
2023-05-06T03:47:01.616Z,391.00
2023-05-06T03:48:01.813Z,389.00
2023-05-06T03:49:01.694Z,389.00
2023-05-06T03:50:01.743Z,390.00
2023-05-06T03:51:01.747Z,390.00
2023-05-06T03:52:01.753Z,389.00
2023-05-06T03:53:01.802Z,390.00
2023-05-06T03:54:01.831Z,390.00
2023-05-06T03:55:01.842Z,388.00
2023-05-06T03:56:01.886Z,389.00
2023-05-06T03:57:01.888Z,392.00
2023-05-06T03:58:01.992Z,392.00
2023-05-06T03:59:02.029Z,391.00
2023-05-06T04:00:02.087Z,390.00
2023-05-06T04:01:02.103Z,390.00
2023-05-06T04:02:02.242Z,390.00
2023-05-06T04:03:02.187Z,390.00
2023-05-06T04:04:02.359Z,390.00
2023-05-06T04:05:02.167Z,391.00
2023-05-06T04:06:02.227Z,387.00
2023-05-06T04:07:02.240Z,387.00
2023-05-06T04:08:02.256Z,389.00
2023-05-06T04:09:02.306Z,389.00
2023-05-06T04:10:02.293Z,387.00
2023-05-06T04:11:02.367Z,385.00
2023-05-06T04:12:02.366Z,387.00
2023-05-06T04:13:02.495Z,388.00
2023-05-06T04:14:02.452Z,386.00
2023-05-06T04:15:02.548Z,385.00
2023-05-06T04:16:02.651Z,387.00
2023-05-06T04:17:02.576Z,389.00
2023-05-06T04:18:02.670Z,391.00
2023-05-06T04:19:04.396Z,393.00
2023-05-06T04:20:02.753Z,396.00
2023-05-06T04:21:02.640Z,394.00
2023-05-06T04:22:02.618Z,396.00
2023-05-06T04:23:02.678Z,399.00
2023-05-06T04:24:02.680Z,397.00
2023-05-06T04:25:02.620Z,398.00
2023-05-06T04:26:02.620Z,396.00
2023-05-06T04:27:02.660Z,395.00
2023-05-06T04:28:02.645Z,393.00
2023-05-06T04:29:02.608Z,393.00
2023-05-06T04:30:02.616Z,393.00
2023-05-06T04:31:02.532Z,393.00
2023-05-06T04:32:02.624Z,393.00
2023-05-06T04:33:02.581Z,395.00
2023-05-06T04:34:02.586Z,395.00
2023-05-06T04:35:02.546Z,391.00
2023-05-06T04:36:02.519Z,390.00
2023-05-06T04:37:02.578Z,392.00
2023-05-06T04:38:02.571Z,394.00
2023-05-06T04:39:02.529Z,395.00
2023-05-06T04:40:02.529Z,395.00
2023-05-06T04:41:02.517Z,394.00
2023-05-06T04:42:02.534Z,391.00
2023-05-06T04:43:02.490Z,390.00
2023-05-06T04:44:02.503Z,389.00
2023-05-06T04:45:02.475Z,393.00
2023-05-06T04:46:02.492Z,392.00
2023-05-06T04:47:02.464Z,390.00
2023-05-06T04:48:02.522Z,389.00
2023-05-06T04:49:02.429Z,390.00
2023-05-06T04:50:02.445Z,390.00
2023-05-06T04:51:02.455Z,389.00
2023-05-06T04:52:02.524Z,391.00
2023-05-06T04:53:02.473Z,392.00
2023-05-06T04:54:02.493Z,395.00
2023-05-06T04:55:02.404Z,396.00
2023-05-06T04:56:02.474Z,397.00
2023-05-06T04:57:02.421Z,397.00
2023-05-06T04:58:02.386Z,398.00
2023-05-06T04:59:02.394Z,398.00
2023-05-06T05:00:02.443Z,399.00
2023-05-06T05:01:02.436Z,399.00
2023-05-06T05:02:02.592Z,398.00
2023-05-06T05:03:02.629Z,398.00
2023-05-06T05:04:02.629Z,397.00
2023-05-06T05:05:02.721Z,396.00
2023-05-06T05:06:02.724Z,394.00
2023-05-06T05:07:02.741Z,394.00
2023-05-06T05:08:02.832Z,394.00
2023-05-06T05:09:02.821Z,394.00
2023-05-06T05:10:02.896Z,395.00
2023-05-06T05:11:02.899Z,396.00
2023-05-06T05:12:02.955Z,395.00
2023-05-06T05:13:03.043Z,396.00
2023-05-06T05:14:03.137Z,397.00
2023-05-06T05:15:03.132Z,394.00
2023-05-06T05:16:03.116Z,395.00
2023-05-06T05:17:03.230Z,394.00
2023-05-06T05:18:03.225Z,395.00
2023-05-06T05:19:04.153Z,396.00
2023-05-06T05:20:03.224Z,394.00
2023-05-06T05:21:03.254Z,395.00
2023-05-06T05:22:03.276Z,394.00
2023-05-06T05:23:03.297Z,395.00
2023-05-06T05:24:03.297Z,398.00
2023-05-06T05:25:04.238Z,398.00
2023-05-06T05:26:03.344Z,400.00
2023-05-06T05:27:03.421Z,398.00
2023-05-06T05:28:03.472Z,400.00
2023-05-06T05:29:03.504Z,401.00
2023-05-06T05:30:03.545Z,401.00
2023-05-06T05:31:03.579Z,402.00
2023-05-06T05:32:03.601Z,401.00
2023-05-06T05:33:03.746Z,397.00
2023-05-06T05:34:03.664Z,394.00
2023-05-06T05:35:03.697Z,394.00
2023-05-06T05:36:03.766Z,394.00
2023-05-06T05:37:03.750Z,396.00
2023-05-06T05:38:03.813Z,399.00
2023-05-06T05:39:03.825Z,400.00
2023-05-06T05:40:03.909Z,400.00
2023-05-06T05:41:03.856Z,400.00
2023-05-06T05:42:03.935Z,398.00
2023-05-06T05:43:03.907Z,398.00
2023-05-06T05:44:03.982Z,400.00
2023-05-06T05:45:03.951Z,398.00
2023-05-06T05:46:04.055Z,396.00
2023-05-06T05:47:04.004Z,396.00
2023-05-06T05:48:04.129Z,399.00
2023-05-06T05:49:04.142Z,401.00
2023-05-06T05:50:04.201Z,403.00
2023-05-06T05:51:04.240Z,406.00
2023-05-06T05:52:04.289Z,408.00
2023-05-06T05:53:04.317Z,407.00
2023-05-06T05:54:04.328Z,406.00
2023-05-06T05:55:04.430Z,406.00
2023-05-06T05:56:04.442Z,408.00
2023-05-06T05:57:04.427Z,409.00
2023-05-06T05:58:04.512Z,405.00
2023-05-06T05:59:04.497Z,404.00
2023-05-06T06:00:04.602Z,405.00
2023-05-06T06:01:04.630Z,406.00
2023-05-06T06:02:04.738Z,404.00
2023-05-06T06:03:04.860Z,404.00
2023-05-06T06:04:04.975Z,403.00
2023-05-06T06:05:04.882Z,404.00
2023-05-06T06:06:04.884Z,403.00
2023-05-06T06:07:04.920Z,403.00
2023-05-06T06:08:04.960Z,404.00
2023-05-06T06:09:04.986Z,404.00
2023-05-06T06:10:05.024Z,402.00
2023-05-06T06:11:05.038Z,401.00
2023-05-06T06:12:05.093Z,400.00
2023-05-06T06:13:05.135Z,399.00
2023-05-06T06:14:05.120Z,400.00
2023-05-06T06:15:05.162Z,398.00
2023-05-06T06:16:05.260Z,399.00
2023-05-06T06:17:05.185Z,401.00
2023-05-06T06:18:05.306Z,402.00
2023-05-06T06:19:05.209Z,401.00
2023-05-06T06:20:05.255Z,400.00
2023-05-06T06:21:05.273Z,400.00
2023-05-06T06:22:05.358Z,401.00
2023-05-06T06:23:05.339Z,400.00
2023-05-06T06:24:05.355Z,403.00
2023-05-06T06:25:05.366Z,404.00
2023-05-06T06:26:05.476Z,404.00
2023-05-06T06:27:05.410Z,404.00
2023-05-06T06:28:05.446Z,401.00
2023-05-06T06:29:05.461Z,400.00
2023-05-06T06:30:05.485Z,400.00
2023-05-06T06:31:05.500Z,402.00
2023-05-06T06:32:05.618Z,402.00
2023-05-06T06:33:05.676Z,402.00
2023-05-06T06:34:05.560Z,401.00
2023-05-06T06:35:05.602Z,403.00
2023-05-06T06:36:05.648Z,403.00
2023-05-06T06:37:07.861Z,401.00
2023-05-06T06:38:05.650Z,402.00
2023-05-06T06:39:05.660Z,405.00
2023-05-06T06:40:05.671Z,404.00
2023-05-06T06:41:05.716Z,405.00
2023-05-06T06:42:05.709Z,407.00
2023-05-06T06:43:05.774Z,407.00
2023-05-06T06:44:07.000Z,407.00
2023-05-06T06:45:05.850Z,406.00
2023-05-06T06:46:05.884Z,405.00
2023-05-06T06:47:05.810Z,406.00
2023-05-06T06:48:05.865Z,405.00
2023-05-06T06:49:05.867Z,403.00
2023-05-06T06:50:05.913Z,403.00
2023-05-06T06:51:05.950Z,403.00
2023-05-06T06:52:05.991Z,404.00
2023-05-06T06:53:06.493Z,404.00
2023-05-06T06:54:06.031Z,404.00
2023-05-06T06:55:06.052Z,403.00
2023-05-06T06:56:06.060Z,404.00
2023-05-06T06:57:06.071Z,402.00
2023-05-06T06:58:06.105Z,402.00
2023-05-06T06:59:06.156Z,402.00
2023-05-06T07:00:06.170Z,401.00
2023-05-06T07:01:06.226Z,401.00
2023-05-06T07:02:06.170Z,400.00
2023-05-06T07:03:06.299Z,401.00
2023-05-06T07:04:07.227Z,403.00
2023-05-06T07:05:06.214Z,401.00
2023-05-06T07:06:06.265Z,403.00
2023-05-06T07:07:06.233Z,404.00
2023-05-06T07:08:06.291Z,403.00
2023-05-06T07:09:06.333Z,404.00
2023-05-06T07:10:06.351Z,403.00
2023-05-06T07:11:06.370Z,404.00
2023-05-06T07:12:06.341Z,406.00
2023-05-06T07:13:06.525Z,406.00
2023-05-06T07:14:06.443Z,407.00
2023-05-06T07:15:06.455Z,405.00
2023-05-06T07:16:06.522Z,405.00
2023-05-06T07:17:06.633Z,404.00
2023-05-06T07:18:06.684Z,402.00
2023-05-06T07:19:06.652Z,401.00
2023-05-06T07:20:06.661Z,400.00
2023-05-06T07:21:06.682Z,401.00
2023-05-06T07:22:06.716Z,398.00
2023-05-06T07:23:06.789Z,396.00
2023-05-06T07:24:06.821Z,396.00
2023-05-06T07:25:06.825Z,398.00
2023-05-06T07:26:06.843Z,397.00
2023-05-06T07:27:06.875Z,396.00
2023-05-06T07:28:06.922Z,397.00
2023-05-06T07:29:06.932Z,397.00
2023-05-06T07:30:06.902Z,397.00
2023-05-06T07:31:06.988Z,396.00
2023-05-06T07:32:06.999Z,395.00
2023-05-06T07:33:07.105Z,394.00
2023-05-06T07:34:06.982Z,394.00
2023-05-06T07:35:07.002Z,394.00
2023-05-06T07:36:07.000Z,398.00
2023-05-06T07:37:07.015Z,396.00
2023-05-06T07:38:07.069Z,397.00
2023-05-06T07:39:07.080Z,396.00
2023-05-06T07:40:07.118Z,396.00
2023-05-06T07:41:07.135Z,397.00
2023-05-06T07:42:07.140Z,398.00
2023-05-06T07:43:07.173Z,401.00
2023-05-06T07:44:07.176Z,400.00
2023-05-06T07:45:07.178Z,399.00
2023-05-06T07:46:07.248Z,397.00
2023-05-06T07:47:07.295Z,399.00
2023-05-06T07:48:07.336Z,398.00
2023-05-06T07:49:07.306Z,399.00
2023-05-06T07:50:07.242Z,399.00
2023-05-06T07:51:07.262Z,399.00
2023-05-06T07:52:07.296Z,398.00
2023-05-06T07:53:07.290Z,401.00
2023-05-06T07:54:07.335Z,402.00
2023-05-06T07:55:07.397Z,402.00
2023-05-06T07:56:07.374Z,401.00
2023-05-06T07:57:07.363Z,398.00
2023-05-06T07:58:07.369Z,398.00
2023-05-06T07:59:07.415Z,396.00
2023-05-06T08:00:07.401Z,396.00
2023-05-06T08:01:07.428Z,395.00
2023-05-06T08:02:07.463Z,394.00
2023-05-06T08:03:07.573Z,397.00
2023-05-06T08:04:07.641Z,401.00
2023-05-06T08:05:07.464Z,401.00
2023-05-06T08:06:07.537Z,399.00
2023-05-06T08:07:07.536Z,398.00
2023-05-06T08:08:07.635Z,401.00
2023-05-06T08:09:07.586Z,401.00
2023-05-06T08:10:07.844Z,400.00
2023-05-06T08:11:07.601Z,401.00
2023-05-06T08:12:07.720Z,400.00
2023-05-06T08:13:07.708Z,398.00
2023-05-06T08:14:07.678Z,397.00
2023-05-06T08:15:08.015Z,397.00
2023-05-06T08:16:07.806Z,399.00
2023-05-06T08:17:07.722Z,399.00
2023-05-06T08:18:20.897Z,399.00
2023-05-06T08:19:08.707Z,400.00
2023-05-06T08:20:07.769Z,400.00
2023-05-06T08:21:07.701Z,399.00
2023-05-06T08:22:07.714Z,397.00
2023-05-06T08:23:07.696Z,397.00
2023-05-06T08:24:07.720Z,398.00
2023-05-06T08:25:07.810Z,398.00
2023-05-06T08:26:07.650Z,397.00
2023-05-06T08:27:07.665Z,394.00
2023-05-06T08:28:07.714Z,394.00
2023-05-06T08:29:07.659Z,392.00
2023-05-06T08:30:07.689Z,391.00
2023-05-06T08:31:07.623Z,392.00
2023-05-06T08:32:07.710Z,392.00
2023-05-06T08:33:07.720Z,394.00
2023-05-06T08:34:07.617Z,395.00
2023-05-06T08:35:07.624Z,395.00
2023-05-06T08:36:07.729Z,396.00
2023-05-06T08:37:07.582Z,399.00
2023-05-06T08:38:07.567Z,399.00
2023-05-06T08:39:07.580Z,398.00
2023-05-06T08:40:07.600Z,398.00
2023-05-06T08:41:07.564Z,399.00
2023-05-06T08:42:07.561Z,399.00
2023-05-06T08:43:07.569Z,400.00
2023-05-06T08:44:07.578Z,399.00
2023-05-06T08:45:07.639Z,397.00
2023-05-06T08:46:07.651Z,396.00
2023-05-06T08:47:07.590Z,396.00
2023-05-06T08:48:07.725Z,396.00
2023-05-06T08:49:07.642Z,398.00
2023-05-06T08:50:07.616Z,399.00
2023-05-06T08:51:08.170Z,398.00
2023-05-06T08:52:07.807Z,399.00
2023-05-06T08:53:07.604Z,400.00
2023-05-06T08:54:07.635Z,405.00
2023-05-06T08:55:07.712Z,405.00
2023-05-06T08:56:07.619Z,405.00
2023-05-06T08:57:08.129Z,404.00
2023-05-06T08:58:07.619Z,401.00
2023-05-06T08:59:07.628Z,401.00
2023-05-06T09:00:07.613Z,401.00
2023-05-06T09:01:07.751Z,399.00
2023-05-06T09:02:07.729Z,396.00
2023-05-06T09:03:07.716Z,398.00
2023-05-06T09:04:07.660Z,397.00
2023-05-06T09:05:07.719Z,395.00
2023-05-06T09:06:07.628Z,397.00
2023-05-06T09:07:07.642Z,398.00
2023-05-06T09:08:07.720Z,399.00
2023-05-06T09:09:07.641Z,399.00
2023-05-06T09:10:07.718Z,397.00
2023-05-06T09:11:07.664Z,397.00
2023-05-06T09:12:07.758Z,398.00
2023-05-06T09:13:07.723Z,398.00
2023-05-06T09:14:07.683Z,398.00
2023-05-06T09:15:07.778Z,397.00
2023-05-06T09:16:07.635Z,396.00
2023-05-06T09:17:07.825Z,397.00
2023-05-06T09:18:07.746Z,397.00
2023-05-06T09:19:07.698Z,398.00
2023-05-06T09:20:07.675Z,399.00
2023-05-06T09:21:07.671Z,400.00
2023-05-06T09:22:07.698Z,400.00
2023-05-06T09:23:07.633Z,399.00
2023-05-06T09:24:07.706Z,400.00
2023-05-06T09:25:07.765Z,399.00
2023-05-06T09:26:07.670Z,399.00
2023-05-06T09:27:10.202Z,400.00
2023-05-06T09:28:07.688Z,400.00
2023-05-06T09:29:07.696Z,398.00
2023-05-06T09:30:07.662Z,396.00
2023-05-06T09:31:07.775Z,394.00
2023-05-06T09:32:07.653Z,392.00
2023-05-06T09:33:07.688Z,390.00
2023-05-06T09:34:07.573Z,389.00
2023-05-06T09:35:07.585Z,389.00
2023-05-06T09:36:07.626Z,390.00
2023-05-06T09:37:07.555Z,390.00
2023-05-06T09:38:07.692Z,389.00
2023-05-06T09:39:07.594Z,392.00
2023-05-06T09:40:07.625Z,393.00
2023-05-06T09:41:07.525Z,396.00
2023-05-06T09:42:07.561Z,395.00
2023-05-06T09:43:07.528Z,396.00
2023-05-06T09:44:07.589Z,397.00
2023-05-06T09:45:07.583Z,397.00
2023-05-06T09:46:07.557Z,398.00
2023-05-06T09:47:07.565Z,399.00
2023-05-06T09:48:07.546Z,399.00
2023-05-06T09:49:07.472Z,400.00
2023-05-06T09:50:07.529Z,399.00
2023-05-06T09:51:07.528Z,399.00
2023-05-06T09:52:07.489Z,397.00
2023-05-06T09:53:07.514Z,396.00
2023-05-06T09:54:07.488Z,394.00
2023-05-06T09:55:07.536Z,397.00
2023-05-06T09:56:07.498Z,395.00
2023-05-06T09:57:07.467Z,394.00
2023-05-06T09:58:07.480Z,392.00
2023-05-06T09:59:07.425Z,394.00
2023-05-06T10:00:07.480Z,394.00
2023-05-06T10:01:07.412Z,394.00
2023-05-06T10:02:07.421Z,395.00
2023-05-06T10:03:07.578Z,392.00
2023-05-06T10:04:07.589Z,391.00
2023-05-06T10:05:07.512Z,391.00
2023-05-06T10:06:07.434Z,392.00
2023-05-06T10:07:07.370Z,394.00
2023-05-06T10:08:07.385Z,397.00
2023-05-06T10:09:07.388Z,396.00
2023-05-06T10:10:07.360Z,396.00
2023-05-06T10:11:07.364Z,396.00
2023-05-06T10:12:07.342Z,396.00
2023-05-06T10:13:07.380Z,395.00
2023-05-06T10:14:07.315Z,393.00
2023-05-06T10:15:07.327Z,392.00
2023-05-06T10:16:07.353Z,394.00
2023-05-06T10:17:07.316Z,394.00
2023-05-06T10:18:07.402Z,394.00
2023-05-06T10:19:07.341Z,394.00
2023-05-06T10:20:07.284Z,394.00
2023-05-06T10:21:07.274Z,395.00
2023-05-06T10:22:07.272Z,397.00
2023-05-06T10:23:07.281Z,395.00
2023-05-06T10:24:07.287Z,394.00
2023-05-06T10:25:07.275Z,394.00
2023-05-06T10:26:07.256Z,393.00
2023-05-06T10:27:07.249Z,391.00
2023-05-06T10:28:07.290Z,391.00
2023-05-06T10:29:07.240Z,388.00
2023-05-06T10:30:07.214Z,388.00
2023-05-06T10:31:07.222Z,389.00
2023-05-06T10:32:07.228Z,387.00
2023-05-06T10:33:07.237Z,386.00
2023-05-06T10:34:07.166Z,387.00
2023-05-06T10:35:07.232Z,387.00
2023-05-06T10:36:07.195Z,389.00
2023-05-06T10:37:07.173Z,389.00
2023-05-06T10:38:07.186Z,390.00
2023-05-06T10:39:07.146Z,390.00
2023-05-06T10:40:07.155Z,391.00
2023-05-06T10:41:07.145Z,392.00
2023-05-06T10:42:07.130Z,394.00
2023-05-06T10:43:07.128Z,392.00
2023-05-06T10:44:07.242Z,391.00
2023-05-06T10:45:07.104Z,389.00
2023-05-06T10:46:07.193Z,389.00
2023-05-06T10:47:07.126Z,389.00
2023-05-06T10:48:07.336Z,388.00
2023-05-06T10:49:07.105Z,387.00
2023-05-06T10:50:07.109Z,389.00
2023-05-06T10:51:07.111Z,387.00
2023-05-06T10:52:07.094Z,384.00
2023-05-06T10:53:07.073Z,386.00
2023-05-06T10:54:07.110Z,387.00
2023-05-06T10:55:07.101Z,387.00
2023-05-06T10:56:07.239Z,386.00
2023-05-06T10:57:07.039Z,385.00
2023-05-06T10:58:07.118Z,381.00
2023-05-06T10:59:07.047Z,378.00
2023-05-06T11:00:07.103Z,378.00
2023-05-06T11:01:07.209Z,381.00
2023-05-06T11:02:07.099Z,383.00
2023-05-06T11:03:07.175Z,385.00
2023-05-06T11:04:07.001Z,385.00
2023-05-06T11:05:06.970Z,386.00
2023-05-06T11:06:07.045Z,387.00
2023-05-06T11:07:07.053Z,385.00
2023-05-06T11:08:06.999Z,385.00
2023-05-06T11:09:07.051Z,382.00
2023-05-06T11:10:07.034Z,384.00
2023-05-06T11:11:07.079Z,384.00
2023-05-06T11:12:07.086Z,385.00
2023-05-06T11:13:07.080Z,385.00
2023-05-06T11:14:07.084Z,387.00
2023-05-06T11:15:07.129Z,389.00
2023-05-06T11:16:07.044Z,390.00
2023-05-06T11:17:07.121Z,389.00
2023-05-06T11:18:07.157Z,387.00
2023-05-06T11:19:07.070Z,386.00
2023-05-06T11:20:07.035Z,387.00
2023-05-06T11:21:07.098Z,388.00
2023-05-06T11:22:07.094Z,388.00
2023-05-06T11:23:07.081Z,388.00
2023-05-06T11:24:07.144Z,387.00
2023-05-06T11:25:07.162Z,387.00
2023-05-06T11:26:07.107Z,386.00
2023-05-06T11:27:07.134Z,386.00
2023-05-06T11:28:07.158Z,387.00
2023-05-06T11:29:07.200Z,387.00
2023-05-06T11:30:07.182Z,387.00
2023-05-06T11:31:07.267Z,388.00
2023-05-06T11:32:07.227Z,387.00
2023-05-06T11:33:07.221Z,387.00
2023-05-06T11:34:07.208Z,388.00
2023-05-06T11:35:07.169Z,390.00
2023-05-06T11:36:07.180Z,392.00
2023-05-06T11:37:07.209Z,395.00
2023-05-06T11:38:07.213Z,393.00
2023-05-06T11:39:07.161Z,390.00
2023-05-06T11:40:07.178Z,388.00
2023-05-06T11:41:07.216Z,385.00
2023-05-06T11:42:07.310Z,388.00
2023-05-06T11:43:07.302Z,383.00
2023-05-06T11:44:08.375Z,384.00
2023-05-06T11:45:07.398Z,385.00
2023-05-06T11:46:07.425Z,389.00
2023-05-06T11:47:07.470Z,389.00
2023-05-06T11:48:07.593Z,389.00
2023-05-06T11:49:07.515Z,390.00
2023-05-06T11:50:07.648Z,392.00
2023-05-06T11:51:07.500Z,390.00
2023-05-06T11:52:07.538Z,389.00
2023-05-06T11:53:07.537Z,388.00
2023-05-06T11:54:07.563Z,387.00
2023-05-06T11:55:07.511Z,389.00
2023-05-06T11:56:07.531Z,389.00
2023-05-06T11:57:07.612Z,390.00
2023-05-06T11:58:07.583Z,390.00
2023-05-06T11:59:07.587Z,387.00
2023-05-06T12:00:07.642Z,387.00
2023-05-06T12:01:07.601Z,387.00
2023-05-06T12:02:07.594Z,386.00
2023-05-06T12:03:07.759Z,388.00
2023-05-06T12:04:07.890Z,384.00
2023-05-06T12:05:07.593Z,379.00
2023-05-06T12:06:07.581Z,380.00
2023-05-06T12:07:07.657Z,383.00
2023-05-06T12:08:13.454Z,380.00
2023-05-06T12:09:08.642Z,383.00
2023-05-06T12:10:07.643Z,383.00
2023-05-06T12:11:07.626Z,384.00
2023-05-06T12:12:07.644Z,383.00
2023-05-06T12:13:07.717Z,386.00
2023-05-06T12:14:07.630Z,385.00
2023-05-06T12:15:07.556Z,387.00
2023-05-06T12:16:07.698Z,389.00
2023-05-06T12:17:07.609Z,390.00
2023-05-06T12:18:07.649Z,391.00
2023-05-06T12:19:07.653Z,390.00
2023-05-06T12:20:07.861Z,388.00
2023-05-06T12:21:07.704Z,389.00
2023-05-06T12:22:07.764Z,389.00
2023-05-06T12:23:07.772Z,390.00
2023-05-06T12:24:07.904Z,393.00
2023-05-06T12:25:08.008Z,389.00
2023-05-06T12:26:07.944Z,389.00
2023-05-06T12:27:07.986Z,390.00
2023-05-06T12:28:08.052Z,389.00
2023-05-06T12:29:08.182Z,390.00